sensor_id;sensor_type;location;lat;lon;timestamp;temperature;humidity
15617;DHT22;7908;51.688;7.130;2023-05-10T00:00:50;13.70;99.90
15617;DHT22;7908;51.688;7.130;2023-05-10T00:03:18;13.60;99.90
15617;DHT22;7908;51.688;7.130;2023-05-10T00:05:47;13.60;99.90
15617;DHT22;7908;51.688;7.130;2023-05-10T00:08:17;13.60;99.90
15617;DHT22;7908;51.688;7.130;2023-05-10T00:10:45;13.60;99.90
15617;DHT22;7908;51.688;7.130;2023-05-10T00:13:14;13.60;99.90
15617;DHT22;7908;51.688;7.130;2023-05-10T00:15:43;13.60;99.90
15617;DHT22;7908;51.688;7.130;2023-05-10T00:18:12;13.60;99.90
15617;DHT22;7908;51.688;7.130;2023-05-10T00:20:40;13.60;99.90
15617;DHT22;7908;51.688;7.130;2023-05-10T00:23:09;13.50;99.90
15617;DHT22;7908;51.688;7.130;2023-05-10T00:25:39;13.50;99.90
15617;DHT22;7908;51.688;7.130;2023-05-10T00:28:07;13.50;99.90
15617;DHT22;7908;51.688;7.130;2023-05-10T00:30:36;13.40;99.90
15617;DHT22;7908;51.688;7.130;2023-05-10T00:33:04;13.40;99.90
15617;DHT22;7908;51.688;7.130;2023-05-10T00:35:33;13.40;99.90
15617;DHT22;7908;51.688;7.130;2023-05-10T00:38:02;13.40;99.90
15617;DHT22;7908;51.688;7.130;2023-05-10T00:40:30;13.30;99.90
15617;DHT22;7908;51.688;7.130;2023-05-10T00:43:00;13.30;99.90
15617;DHT22;7908;51.688;7.130;2023-05-10T00:45:30;13.30;99.90
15617;DHT22;7908;51.688;7.130;2023-05-10T00:48:00;13.30;99.90
15617;DHT22;7908;51.688;7.130;2023-05-10T00:50:31;13.30;99.90
15617;DHT22;7908;51.688;7.130;2023-05-10T00:53:00;13.30;99.90
15617;DHT22;7908;51.688;7.130;2023-05-10T00:55:29;13.40;99.90
15617;DHT22;7908;51.688;7.130;2023-05-10T00:57:59;13.30;99.90
15617;DHT22;7908;51.688;7.130;2023-05-10T01:00:28;13.40;99.90
15617;DHT22;7908;51.688;7.130;2023-05-10T01:02:57;13.40;99.90
15617;DHT22;7908;51.688;7.130;2023-05-10T01:05:26;13.30;99.90
15617;DHT22;7908;51.688;7.130;2023-05-10T01:07:56;13.30;99.90
15617;DHT22;7908;51.688;7.130;2023-05-10T01:10:25;13.40;99.90
15617;DHT22;7908;51.688;7.130;2023-05-10T01:12:53;13.30;99.90
15617;DHT22;7908;51.688;7.130;2023-05-10T01:15:24;13.30;99.90
15617;DHT22;7908;51.688;7.130;2023-05-10T01:17:53;13.30;99.90
15617;DHT22;7908;51.688;7.130;2023-05-10T01:20:23;13.20;99.90
15617;DHT22;7908;51.688;7.130;2023-05-10T01:23:20;13.20;99.90
15617;DHT22;7908;51.688;7.130;2023-05-10T01:26:16;13.10;99.90
15617;DHT22;7908;51.688;7.130;2023-05-10T01:29:19;13.10;99.90
15617;DHT22;7908;51.688;7.130;2023-05-10T01:34:58;13.00;99.90
15617;DHT22;7908;51.688;7.130;2023-05-10T01:37:42;13.00;99.90
15617;DHT22;7908;51.688;7.130;2023-05-10T01:40:19;13.10;99.90
15617;DHT22;7908;51.688;7.130;2023-05-10T01:42:54;13.00;99.90
15617;DHT22;7908;51.688;7.130;2023-05-10T01:45:30;13.00;99.90
15617;DHT22;7908;51.688;7.130;2023-05-10T01:48:06;12.90;99.90
15617;DHT22;7908;51.688;7.130;2023-05-10T01:50:37;12.90;99.90
15617;DHT22;7908;51.688;7.130;2023-05-10T01:53:08;12.90;99.90
15617;DHT22;7908;51.688;7.130;2023-05-10T01:55:43;12.90;99.90
15617;DHT22;7908;51.688;7.130;2023-05-10T01:58:14;12.90;99.90
15617;DHT22;7908;51.688;7.130;2023-05-10T02:00:44;12.90;99.90
15617;DHT22;7908;51.688;7.130;2023-05-10T02:03:17;12.90;99.90
15617;DHT22;7908;51.688;7.130;2023-05-10T02:05:48;12.90;99.90
15617;DHT22;7908;51.688;7.130;2023-05-10T02:08:18;12.80;99.90
15617;DHT22;7908;51.688;7.130;2023-05-10T02:10:47;12.80;99.90
15617;DHT22;7908;51.688;7.130;2023-05-10T02:13:18;12.80;99.90
15617;DHT22;7908;51.688;7.130;2023-05-10T02:15:49;12.80;99.90
15617;DHT22;7908;51.688;7.130;2023-05-10T02:18:19;12.80;99.90
15617;DHT22;7908;51.688;7.130;2023-05-10T02:20:50;12.80;99.90
15617;DHT22;7908;51.688;7.130;2023-05-10T02:23:21;12.80;99.90
15617;DHT22;7908;51.688;7.130;2023-05-10T02:25:51;12.80;99.90
15617;DHT22;7908;51.688;7.130;2023-05-10T02:28:21;12.80;99.90
15617;DHT22;7908;51.688;7.130;2023-05-10T02:30:51;12.70;99.90
15617;DHT22;7908;51.688;7.130;2023-05-10T02:33:22;12.70;99.90
15617;DHT22;7908;51.688;7.130;2023-05-10T02:35:52;12.60;99.90
15617;DHT22;7908;51.688;7.130;2023-05-10T02:38:22;12.60;99.90
15617;DHT22;7908;51.688;7.130;2023-05-10T02:40:52;12.60;99.90
15617;DHT22;7908;51.688;7.130;2023-05-10T02:43:23;12.60;99.90
15617;DHT22;7908;51.688;7.130;2023-05-10T02:45:53;12.60;99.90
15617;DHT22;7908;51.688;7.130;2023-05-10T02:48:23;12.60;99.90
15617;DHT22;7908;51.688;7.130;2023-05-10T02:50:52;12.60;99.90
15617;DHT22;7908;51.688;7.130;2023-05-10T02:53:31;12.60;99.90
15617;DHT22;7908;51.688;7.130;2023-05-10T02:56:05;12.60;99.90
15617;DHT22;7908;51.688;7.130;2023-05-10T02:58:36;12.50;99.90
15617;DHT22;7908;51.688;7.130;2023-05-10T03:01:05;12.50;99.90
15617;DHT22;7908;51.688;7.130;2023-05-10T03:03:36;12.50;99.90
15617;DHT22;7908;51.688;7.130;2023-05-10T03:06:05;12.50;99.90
15617;DHT22;7908;51.688;7.130;2023-05-10T03:08:34;12.50;99.90
15617;DHT22;7908;51.688;7.130;2023-05-10T03:11:25;12.50;99.90
15617;DHT22;7908;51.688;7.130;2023-05-10T03:14:06;12.60;99.90
15617;DHT22;7908;51.688;7.130;2023-05-10T03:16:42;12.70;99.90
15617;DHT22;7908;51.688;7.130;2023-05-10T03:19:19;12.70;99.90
15617;DHT22;7908;51.688;7.130;2023-05-10T03:21:52;12.80;99.90
15617;DHT22;7908;51.688;7.130;2023-05-10T03:24:22;12.80;99.90
15617;DHT22;7908;51.688;7.130;2023-05-10T03:26:53;12.80;99.90
15617;DHT22;7908;51.688;7.130;2023-05-10T03:29:25;12.70;99.90
15617;DHT22;7908;51.688;7.130;2023-05-10T03:31:54;12.80;99.90
15617;DHT22;7908;51.688;7.130;2023-05-10T03:34:25;12.80;99.90
15617;DHT22;7908;51.688;7.130;2023-05-10T03:36:53;12.80;99.90
15617;DHT22;7908;51.688;7.130;2023-05-10T03:39:22;12.80;99.90
15617;DHT22;7908;51.688;7.130;2023-05-10T03:41:51;12.80;99.90
15617;DHT22;7908;51.688;7.130;2023-05-10T03:44:20;12.80;99.90
15617;DHT22;7908;51.688;7.130;2023-05-10T03:46:48;12.80;99.90
15617;DHT22;7908;51.688;7.130;2023-05-10T03:49:17;12.70;99.90
15617;DHT22;7908;51.688;7.130;2023-05-10T03:51:48;12.70;99.90
15617;DHT22;7908;51.688;7.130;2023-05-10T03:54:16;12.80;99.90
15617;DHT22;7908;51.688;7.130;2023-05-10T03:56:45;12.80;99.90
15617;DHT22;7908;51.688;7.130;2023-05-10T03:59:15;12.80;99.90
15617;DHT22;7908;51.688;7.130;2023-05-10T04:01:43;12.80;99.90
15617;DHT22;7908;51.688;7.130;2023-05-10T04:04:12;12.80;99.90
15617;DHT22;7908;51.688;7.130;2023-05-10T04:06:40;12.80;99.90
15617;DHT22;7908;51.688;7.130;2023-05-10T04:09:11;12.80;99.90
15617;DHT22;7908;51.688;7.130;2023-05-10T04:11:39;12.80;99.90
15617;DHT22;7908;51.688;7.130;2023-05-10T04:14:08;12.80;99.90
15617;DHT22;7908;51.688;7.130;2023-05-10T04:16:36;12.80;99.90
15617;DHT22;7908;51.688;7.130;2023-05-10T04:19:05;12.80;99.90
15617;DHT22;7908;51.688;7.130;2023-05-10T04:21:34;12.80;99.90
15617;DHT22;7908;51.688;7.130;2023-05-10T04:24:03;12.70;99.90
15617;DHT22;7908;51.688;7.130;2023-05-10T04:26:33;12.70;99.90
15617;DHT22;7908;51.688;7.130;2023-05-10T04:29:02;12.80;99.90
15617;DHT22;7908;51.688;7.130;2023-05-10T04:31:32;12.80;99.90
15617;DHT22;7908;51.688;7.130;2023-05-10T04:34:01;12.80;99.90
15617;DHT22;7908;51.688;7.130;2023-05-10T04:36:30;12.90;99.90
15617;DHT22;7908;51.688;7.130;2023-05-10T04:38:59;12.90;99.90
15617;DHT22;7908;51.688;7.130;2023-05-10T04:41:28;12.90;99.90
15617;DHT22;7908;51.688;7.130;2023-05-10T04:43:58;12.90;99.90
15617;DHT22;7908;51.688;7.130;2023-05-10T04:46:26;12.90;99.90
15617;DHT22;7908;51.688;7.130;2023-05-10T04:48:55;12.90;99.90
15617;DHT22;7908;51.688;7.130;2023-05-10T04:51:24;12.90;99.90
15617;DHT22;7908;51.688;7.130;2023-05-10T04:53:52;12.90;99.90
15617;DHT22;7908;51.688;7.130;2023-05-10T04:56:32;12.90;99.90
15617;DHT22;7908;51.688;7.130;2023-05-10T04:59:02;13.00;99.90
15617;DHT22;7908;51.688;7.130;2023-05-10T05:01:31;13.00;99.90
15617;DHT22;7908;51.688;7.130;2023-05-10T05:03:59;13.00;99.90
15617;DHT22;7908;51.688;7.130;2023-05-10T05:06:28;13.00;99.90
15617;DHT22;7908;51.688;7.130;2023-05-10T05:08:57;13.00;99.90
15617;DHT22;7908;51.688;7.130;2023-05-10T05:11:26;13.00;99.90
15617;DHT22;7908;51.688;7.130;2023-05-10T05:13:54;13.00;99.90
15617;DHT22;7908;51.688;7.130;2023-05-10T05:16:24;13.00;99.90
15617;DHT22;7908;51.688;7.130;2023-05-10T05:18:54;13.10;99.90
15617;DHT22;7908;51.688;7.130;2023-05-10T05:21:22;13.00;99.90
15617;DHT22;7908;51.688;7.130;2023-05-10T05:23:53;13.00;99.90
15617;DHT22;7908;51.688;7.130;2023-05-10T05:26:22;13.10;99.90
15617;DHT22;7908;51.688;7.130;2023-05-10T05:28:51;13.10;99.90
15617;DHT22;7908;51.688;7.130;2023-05-10T05:31:21;13.10;99.90
15617;DHT22;7908;51.688;7.130;2023-05-10T05:33:51;13.10;99.90
15617;DHT22;7908;51.688;7.130;2023-05-10T05:36:20;13.10;99.90
15617;DHT22;7908;51.688;7.130;2023-05-10T05:38:48;13.10;99.90
15617;DHT22;7908;51.688;7.130;2023-05-10T05:41:17;13.10;99.90
15617;DHT22;7908;51.688;7.130;2023-05-10T05:43:45;13.10;99.90
15617;DHT22;7908;51.688;7.130;2023-05-10T05:46:14;13.00;99.90
15617;DHT22;7908;51.688;7.130;2023-05-10T05:48:43;13.10;99.90
15617;DHT22;7908;51.688;7.130;2023-05-10T05:51:13;13.10;99.90
15617;DHT22;7908;51.688;7.130;2023-05-10T05:53:42;13.10;99.90
15617;DHT22;7908;51.688;7.130;2023-05-10T05:56:10;13.10;99.90
15617;DHT22;7908;51.688;7.130;2023-05-10T05:58:39;13.20;99.90
15617;DHT22;7908;51.688;7.130;2023-05-10T06:01:08;13.30;99.90
15617;DHT22;7908;51.688;7.130;2023-05-10T06:03:37;13.30;99.90
15617;DHT22;7908;51.688;7.130;2023-05-10T06:06:06;13.40;99.90
15617;DHT22;7908;51.688;7.130;2023-05-10T06:08:36;13.40;99.90
15617;DHT22;7908;51.688;7.130;2023-05-10T06:11:05;13.30;99.90
15617;DHT22;7908;51.688;7.130;2023-05-10T06:13:33;13.30;99.90
15617;DHT22;7908;51.688;7.130;2023-05-10T06:16:02;13.40;99.90
15617;DHT22;7908;51.688;7.130;2023-05-10T06:18:31;13.30;99.90
15617;DHT22;7908;51.688;7.130;2023-05-10T06:21:00;13.30;99.90
15617;DHT22;7908;51.688;7.130;2023-05-10T06:23:29;13.30;99.90
15617;DHT22;7908;51.688;7.130;2023-05-10T06:25:59;13.30;99.90
15617;DHT22;7908;51.688;7.130;2023-05-10T06:28:27;13.30;99.90
15617;DHT22;7908;51.688;7.130;2023-05-10T06:30:58;13.40;99.90
15617;DHT22;7908;51.688;7.130;2023-05-10T06:33:26;13.40;99.90
15617;DHT22;7908;51.688;7.130;2023-05-10T06:35:55;13.40;99.90
15617;DHT22;7908;51.688;7.130;2023-05-10T06:38:24;13.40;99.90
15617;DHT22;7908;51.688;7.130;2023-05-10T06:40:53;13.40;99.90
15617;DHT22;7908;51.688;7.130;2023-05-10T06:43:23;13.40;99.90
15617;DHT22;7908;51.688;7.130;2023-05-10T06:45:51;13.50;99.90
15617;DHT22;7908;51.688;7.130;2023-05-10T06:48:20;13.60;99.90
15617;DHT22;7908;51.688;7.130;2023-05-10T06:50:49;13.70;99.90
15617;DHT22;7908;51.688;7.130;2023-05-10T06:53:18;13.70;99.90
15617;DHT22;7908;51.688;7.130;2023-05-10T06:55:46;13.80;99.90
15617;DHT22;7908;51.688;7.130;2023-05-10T06:58:15;13.80;99.90
15617;DHT22;7908;51.688;7.130;2023-05-10T07:00:45;13.80;99.90
15617;DHT22;7908;51.688;7.130;2023-05-10T07:03:14;13.80;99.90
15617;DHT22;7908;51.688;7.130;2023-05-10T07:05:43;13.90;99.90
15617;DHT22;7908;51.688;7.130;2023-05-10T07:08:11;14.00;99.90
15617;DHT22;7908;51.688;7.130;2023-05-10T07:10:40;14.00;99.90
15617;DHT22;7908;51.688;7.130;2023-05-10T07:13:09;14.00;99.90
15617;DHT22;7908;51.688;7.130;2023-05-10T07:15:38;14.00;99.90
15617;DHT22;7908;51.688;7.130;2023-05-10T07:18:08;14.10;99.90
15617;DHT22;7908;51.688;7.130;2023-05-10T07:20:37;14.10;99.90
15617;DHT22;7908;51.688;7.130;2023-05-10T07:23:05;14.20;99.90
15617;DHT22;7908;51.688;7.130;2023-05-10T07:25:34;14.40;99.90
15617;DHT22;7908;51.688;7.130;2023-05-10T07:28:03;14.50;99.90
15617;DHT22;7908;51.688;7.130;2023-05-10T07:30:32;14.70;99.90
15617;DHT22;7908;51.688;7.130;2023-05-10T07:33:01;14.80;99.90
15617;DHT22;7908;51.688;7.130;2023-05-10T07:35:31;14.90;99.90
15617;DHT22;7908;51.688;7.130;2023-05-10T07:38:01;15.00;99.90
15617;DHT22;7908;51.688;7.130;2023-05-10T07:40:30;15.20;99.90
15617;DHT22;7908;51.688;7.130;2023-05-10T07:42:58;15.20;99.90
15617;DHT22;7908;51.688;7.130;2023-05-10T07:45:28;15.30;99.90
15617;DHT22;7908;51.688;7.130;2023-05-10T07:47:57;15.30;99.90
15617;DHT22;7908;51.688;7.130;2023-05-10T07:50:26;15.20;99.90
15617;DHT22;7908;51.688;7.130;2023-05-10T07:52:56;15.30;99.90
15617;DHT22;7908;51.688;7.130;2023-05-10T07:55:25;15.10;99.90
15617;DHT22;7908;51.688;7.130;2023-05-10T07:57:53;15.10;99.90
15617;DHT22;7908;51.688;7.130;2023-05-10T08:00:22;15.20;99.90
15617;DHT22;7908;51.688;7.130;2023-05-10T08:02:51;15.10;99.90
15617;DHT22;7908;51.688;7.130;2023-05-10T08:05:20;15.10;99.90
15617;DHT22;7908;51.688;7.130;2023-05-10T08:07:48;15.30;99.90
15617;DHT22;7908;51.688;7.130;2023-05-10T08:10:18;15.50;99.90
15617;DHT22;7908;51.688;7.130;2023-05-10T08:12:47;15.60;99.90
15617;DHT22;7908;51.688;7.130;2023-05-10T08:15:16;15.60;99.90
15617;DHT22;7908;51.688;7.130;2023-05-10T08:17:45;15.60;99.90
15617;DHT22;7908;51.688;7.130;2023-05-10T08:20:14;15.60;99.90
15617;DHT22;7908;51.688;7.130;2023-05-10T08:22:44;15.60;99.90
15617;DHT22;7908;51.688;7.130;2023-05-10T08:25:14;15.50;99.90
15617;DHT22;7908;51.688;7.130;2023-05-10T08:27:44;15.60;99.90
15617;DHT22;7908;51.688;7.130;2023-05-10T08:30:13;15.70;99.90
15617;DHT22;7908;51.688;7.130;2023-05-10T08:32:42;15.90;99.90
15617;DHT22;7908;51.688;7.130;2023-05-10T08:35:11;16.00;99.90
15617;DHT22;7908;51.688;7.130;2023-05-10T08:37:39;15.90;99.90
15617;DHT22;7908;51.688;7.130;2023-05-10T08:40:09;16.10;99.90
15617;DHT22;7908;51.688;7.130;2023-05-10T08:42:41;16.00;99.90
15617;DHT22;7908;51.688;7.130;2023-05-10T08:45:13;15.90;99.90
15617;DHT22;7908;51.688;7.130;2023-05-10T08:47:44;15.90;99.90
15617;DHT22;7908;51.688;7.130;2023-05-10T08:50:13;15.90;99.90
15617;DHT22;7908;51.688;7.130;2023-05-10T08:52:43;15.90;99.90
15617;DHT22;7908;51.688;7.130;2023-05-10T08:55:15;16.00;99.90
15617;DHT22;7908;51.688;7.130;2023-05-10T08:57:45;16.00;99.90
15617;DHT22;7908;51.688;7.130;2023-05-10T09:00:15;16.10;99.90
15617;DHT22;7908;51.688;7.130;2023-05-10T09:02:45;16.20;99.90
15617;DHT22;7908;51.688;7.130;2023-05-10T09:05:14;16.20;99.90
15617;DHT22;7908;51.688;7.130;2023-05-10T09:07:45;16.10;99.90
15617;DHT22;7908;51.688;7.130;2023-05-10T09:10:14;16.20;99.90
15617;DHT22;7908;51.688;7.130;2023-05-10T09:12:44;16.30;99.90
15617;DHT22;7908;51.688;7.130;2023-05-10T09:15:15;16.20;99.90
15617;DHT22;7908;51.688;7.130;2023-05-10T09:17:47;16.20;99.90
15617;DHT22;7908;51.688;7.130;2023-05-10T09:20:17;16.30;99.90
15617;DHT22;7908;51.688;7.130;2023-05-10T09:22:46;16.40;99.90
15617;DHT22;7908;51.688;7.130;2023-05-10T09:25:15;16.30;99.90
15617;DHT22;7908;51.688;7.130;2023-05-10T09:27:46;16.20;99.90
15617;DHT22;7908;51.688;7.130;2023-05-10T09:30:17;16.20;99.90
15617;DHT22;7908;51.688;7.130;2023-05-10T09:32:51;16.20;99.90
15617;DHT22;7908;51.688;7.130;2023-05-10T09:35:22;16.10;99.90
15617;DHT22;7908;51.688;7.130;2023-05-10T09:37:57;16.10;99.90
15617;DHT22;7908;51.688;7.130;2023-05-10T09:40:27;16.10;99.90
15617;DHT22;7908;51.688;7.130;2023-05-10T09:42:58;16.00;99.90
15617;DHT22;7908;51.688;7.130;2023-05-10T09:45:29;16.00;99.90
15617;DHT22;7908;51.688;7.130;2023-05-10T09:47:59;16.10;99.90
15617;DHT22;7908;51.688;7.130;2023-05-10T09:50:29;16.10;99.90
15617;DHT22;7908;51.688;7.130;2023-05-10T09:52:58;16.30;99.90
15617;DHT22;7908;51.688;7.130;2023-05-10T09:55:40;16.40;99.90
15617;DHT22;7908;51.688;7.130;2023-05-10T09:58:11;16.20;99.90
15617;DHT22;7908;51.688;7.130;2023-05-10T10:00:43;16.10;99.90
15617;DHT22;7908;51.688;7.130;2023-05-10T10:03:16;16.00;99.90
15617;DHT22;7908;51.688;7.130;2023-05-10T10:05:45;16.00;99.90
15617;DHT22;7908;51.688;7.130;2023-05-10T10:08:15;16.10;99.90
15617;DHT22;7908;51.688;7.130;2023-05-10T10:10:44;16.10;99.90
15617;DHT22;7908;51.688;7.130;2023-05-10T10:13:13;16.10;99.90
15617;DHT22;7908;51.688;7.130;2023-05-10T10:15:45;16.20;99.90
15617;DHT22;7908;51.688;7.130;2023-05-10T10:18:19;16.10;99.90
15617;DHT22;7908;51.688;7.130;2023-05-10T10:20:50;16.30;99.90
15617;DHT22;7908;51.688;7.130;2023-05-10T10:23:19;16.40;99.90
15617;DHT22;7908;51.688;7.130;2023-05-10T10:25:48;16.30;99.90
15617;DHT22;7908;51.688;7.130;2023-05-10T10:28:26;16.30;99.90
15617;DHT22;7908;51.688;7.130;2023-05-10T10:31:14;16.40;99.90
15617;DHT22;7908;51.688;7.130;2023-05-10T10:33:59;16.30;99.90
15617;DHT22;7908;51.688;7.130;2023-05-10T10:36:29;16.30;99.90
15617;DHT22;7908;51.688;7.130;2023-05-10T10:38:59;16.20;99.90
15617;DHT22;7908;51.688;7.130;2023-05-10T10:41:31;16.30;99.90
15617;DHT22;7908;51.688;7.130;2023-05-10T14:35:40;18.90;99.90
15617;DHT22;7908;51.688;7.130;2023-05-10T14:38:10;18.90;99.90
15617;DHT22;7908;51.688;7.130;2023-05-10T14:40:42;18.80;99.90
15617;DHT22;7908;51.688;7.130;2023-05-10T14:43:16;18.80;99.90
15617;DHT22;7908;51.688;7.130;2023-05-10T14:45:47;18.70;99.90
15617;DHT22;7908;51.688;7.130;2023-05-10T14:48:16;18.70;99.90
15617;DHT22;7908;51.688;7.130;2023-05-10T14:50:52;18.70;99.90
15617;DHT22;7908;51.688;7.130;2023-05-10T14:56:45;18.80;99.90
15617;DHT22;7908;51.688;7.130;2023-05-10T14:59:19;18.90;99.90
15617;DHT22;7908;51.688;7.130;2023-05-10T15:01:49;19.00;99.90
15617;DHT22;7908;51.688;7.130;2023-05-10T15:04:21;18.90;99.90
15617;DHT22;7908;51.688;7.130;2023-05-10T15:06:56;18.90;99.90
15617;DHT22;7908;51.688;7.130;2023-05-10T15:09:26;18.80;99.90
15617;DHT22;7908;51.688;7.130;2023-05-10T15:11:56;18.60;99.90
15617;DHT22;7908;51.688;7.130;2023-05-10T15:14:27;18.70;99.90
15617;DHT22;7908;51.688;7.130;2023-05-10T15:17:00;18.80;99.90
15617;DHT22;7908;51.688;7.130;2023-05-10T15:19:32;18.90;99.90
15617;DHT22;7908;51.688;7.130;2023-05-10T15:22:05;18.90;99.90
15617;DHT22;7908;51.688;7.130;2023-05-10T15:24:34;19.00;99.90
15617;DHT22;7908;51.688;7.130;2023-05-10T15:27:03;19.10;99.90
15617;DHT22;7908;51.688;7.130;2023-05-10T15:29:34;19.20;99.90
15617;DHT22;7908;51.688;7.130;2023-05-10T15:32:03;19.30;99.90
15617;DHT22;7908;51.688;7.130;2023-05-10T15:34:32;19.40;99.90
15617;DHT22;7908;51.688;7.130;2023-05-10T15:37:05;19.40;99.90
15617;DHT22;7908;51.688;7.130;2023-05-10T15:39:34;19.50;99.90
15617;DHT22;7908;51.688;7.130;2023-05-10T15:42:04;19.50;99.90
15617;DHT22;7908;51.688;7.130;2023-05-10T15:44:33;19.50;99.90
15617;DHT22;7908;51.688;7.130;2023-05-10T15:47:05;19.60;99.90
15617;DHT22;7908;51.688;7.130;2023-05-10T15:49:34;19.60;99.90
15617;DHT22;7908;51.688;7.130;2023-05-10T15:52:05;19.50;99.90
15617;DHT22;7908;51.688;7.130;2023-05-10T15:54:35;19.40;99.90
15617;DHT22;7908;51.688;7.130;2023-05-10T15:57:04;19.30;99.90
15617;DHT22;7908;51.688;7.130;2023-05-10T15:59:33;19.30;99.90
15617;DHT22;7908;51.688;7.130;2023-05-10T16:02:03;19.30;99.90
15617;DHT22;7908;51.688;7.130;2023-05-10T16:04:34;19.30;99.90
15617;DHT22;7908;51.688;7.130;2023-05-10T16:07:04;19.20;99.90
15617;DHT22;7908;51.688;7.130;2023-05-10T16:09:34;19.30;99.90
15617;DHT22;7908;51.688;7.130;2023-05-10T16:12:03;19.40;99.90
15617;DHT22;7908;51.688;7.130;2023-05-10T16:14:32;19.40;99.90
15617;DHT22;7908;51.688;7.130;2023-05-10T16:17:02;19.50;99.90
15617;DHT22;7908;51.688;7.130;2023-05-10T16:19:32;19.60;99.90
15617;DHT22;7908;51.688;7.130;2023-05-10T16:22:05;19.60;99.90
15617;DHT22;7908;51.688;7.130;2023-05-10T16:24:35;19.40;99.90
15617;DHT22;7908;51.688;7.130;2023-05-10T16:27:05;19.30;99.90
15617;DHT22;7908;51.688;7.130;2023-05-10T16:29:34;19.30;99.90
15617;DHT22;7908;51.688;7.130;2023-05-10T16:32:05;19.20;99.90
15617;DHT22;7908;51.688;7.130;2023-05-10T16:34:34;19.20;99.90
15617;DHT22;7908;51.688;7.130;2023-05-10T16:37:03;19.00;99.90
15617;DHT22;7908;51.688;7.130;2023-05-10T16:39:36;18.80;99.90
15617;DHT22;7908;51.688;7.130;2023-05-10T16:42:06;18.80;99.90
15617;DHT22;7908;51.688;7.130;2023-05-10T16:44:36;18.70;99.90
15617;DHT22;7908;51.688;7.130;2023-05-10T16:47:05;18.70;99.90
15617;DHT22;7908;51.688;7.130;2023-05-10T16:49:35;18.70;99.90
15617;DHT22;7908;51.688;7.130;2023-05-10T16:52:04;18.60;99.90
15617;DHT22;7908;51.688;7.130;2023-05-10T16:54:35;18.40;99.90
15617;DHT22;7908;51.688;7.130;2023-05-10T16:57:06;18.40;99.90
15617;DHT22;7908;51.688;7.130;2023-05-10T16:59:35;18.40;99.90
15617;DHT22;7908;51.688;7.130;2023-05-10T17:02:05;18.20;99.90
15617;DHT22;7908;51.688;7.130;2023-05-10T17:04:34;18.10;99.90
15617;DHT22;7908;51.688;7.130;2023-05-10T17:07:04;18.10;99.90
15617;DHT22;7908;51.688;7.130;2023-05-10T17:09:33;18.10;99.90
15617;DHT22;7908;51.688;7.130;2023-05-10T17:12:04;18.10;99.90
15617;DHT22;7908;51.688;7.130;2023-05-10T17:14:33;18.10;99.90
15617;DHT22;7908;51.688;7.130;2023-05-10T17:17:08;18.30;99.90
15617;DHT22;7908;51.688;7.130;2023-05-10T17:19:37;18.40;99.90
15617;DHT22;7908;51.688;7.130;2023-05-10T17:22:07;18.40;99.90
15617;DHT22;7908;51.688;7.130;2023-05-10T17:24:40;18.50;99.90
15617;DHT22;7908;51.688;7.130;2023-05-10T17:27:12;18.40;99.90
15617;DHT22;7908;51.688;7.130;2023-05-10T17:29:41;18.30;99.90
15617;DHT22;7908;51.688;7.130;2023-05-10T17:32:11;18.30;99.90
15617;DHT22;7908;51.688;7.130;2023-05-10T17:34:43;18.20;99.90
15617;DHT22;7908;51.688;7.130;2023-05-10T17:37:13;18.10;99.90
15617;DHT22;7908;51.688;7.130;2023-05-10T17:39:44;18.00;99.90
15617;DHT22;7908;51.688;7.130;2023-05-10T17:42:15;18.00;99.90
15617;DHT22;7908;51.688;7.130;2023-05-10T17:44:47;18.10;99.90
15617;DHT22;7908;51.688;7.130;2023-05-10T17:47:17;18.00;99.90
15617;DHT22;7908;51.688;7.130;2023-05-10T17:49:49;18.00;99.90
15617;DHT22;7908;51.688;7.130;2023-05-10T17:52:26;17.90;99.90
15617;DHT22;7908;51.688;7.130;2023-05-10T17:54:59;17.80;99.90
15617;DHT22;7908;51.688;7.130;2023-05-10T17:57:37;17.80;99.90
15617;DHT22;7908;51.688;7.130;2023-05-10T18:00:08;17.70;99.90
15617;DHT22;7908;51.688;7.130;2023-05-10T18:02:45;17.60;99.90
15617;DHT22;7908;51.688;7.130;2023-05-10T18:05:21;17.50;99.90
15617;DHT22;7908;51.688;7.130;2023-05-10T18:07:53;17.50;99.90
15617;DHT22;7908;51.688;7.130;2023-05-10T18:10:24;17.50;99.90
15617;DHT22;7908;51.688;7.130;2023-05-10T18:12:54;17.50;99.90
15617;DHT22;7908;51.688;7.130;2023-05-10T18:15:29;17.40;99.90
15617;DHT22;7908;51.688;7.130;2023-05-10T18:18:04;17.40;99.90
15617;DHT22;7908;51.688;7.130;2023-05-10T18:20:35;17.30;99.90
15617;DHT22;7908;51.688;7.130;2023-05-10T18:23:05;17.30;99.90
15617;DHT22;7908;51.688;7.130;2023-05-10T18:25:34;17.20;99.90
15617;DHT22;7908;51.688;7.130;2023-05-10T18:28:16;17.20;99.90
15617;DHT22;7908;51.688;7.130;2023-05-10T18:30:50;17.10;99.90
15617;DHT22;7908;51.688;7.130;2023-05-10T18:33:24;17.00;99.90
15617;DHT22;7908;51.688;7.130;2023-05-10T18:36:05;16.90;99.90
15617;DHT22;7908;51.688;7.130;2023-05-10T18:38:48;16.90;99.90
15617;DHT22;7908;51.688;7.130;2023-05-10T18:41:19;16.80;99.90
15617;DHT22;7908;51.688;7.130;2023-05-10T18:43:51;16.70;99.90
15617;DHT22;7908;51.688;7.130;2023-05-10T18:46:25;16.60;99.90
15617;DHT22;7908;51.688;7.130;2023-05-10T18:49:05;16.60;99.90
15617;DHT22;7908;51.688;7.130;2023-05-10T18:51:48;16.60;99.90
15617;DHT22;7908;51.688;7.130;2023-05-10T18:54:18;16.60;99.90
15617;DHT22;7908;51.688;7.130;2023-05-10T18:56:49;16.50;99.90
15617;DHT22;7908;51.688;7.130;2023-05-10T18:59:36;16.40;99.90
15617;DHT22;7908;51.688;7.130;2023-05-10T19:02:13;16.40;99.90
15617;DHT22;7908;51.688;7.130;2023-05-10T19:04:43;16.40;99.90
15617;DHT22;7908;51.688;7.130;2023-05-10T19:07:16;16.30;99.90
15617;DHT22;7908;51.688;7.130;2023-05-10T19:09:50;16.30;99.90
15617;DHT22;7908;51.688;7.130;2023-05-10T19:12:19;16.30;99.90
15617;DHT22;7908;51.688;7.130;2023-05-10T19:14:50;16.20;99.90
15617;DHT22;7908;51.688;7.130;2023-05-10T19:17:22;16.20;99.90
15617;DHT22;7908;51.688;7.130;2023-05-10T19:19:58;16.10;99.90
15617;DHT22;7908;51.688;7.130;2023-05-10T19:22:31;16.10;99.90
15617;DHT22;7908;51.688;7.130;2023-05-10T19:25:22;16.00;99.90
15617;DHT22;7908;51.688;7.130;2023-05-10T19:27:59;15.90;99.90
15617;DHT22;7908;51.688;7.130;2023-05-10T19:30:49;15.90;99.90
15617;DHT22;7908;51.688;7.130;2023-05-10T19:33:21;15.80;99.90
15617;DHT22;7908;51.688;7.130;2023-05-10T19:35:51;15.80;99.90
15617;DHT22;7908;51.688;7.130;2023-05-10T19:38:23;15.70;99.90
15617;DHT22;7908;51.688;7.130;2023-05-10T19:40:57;15.60;99.90
15617;DHT22;7908;51.688;7.130;2023-05-10T19:43:30;15.50;99.90
15617;DHT22;7908;51.688;7.130;2023-05-10T19:46:05;15.50;99.90
15617;DHT22;7908;51.688;7.130;2023-05-10T19:48:38;15.50;99.90
15617;DHT22;7908;51.688;7.130;2023-05-10T19:51:18;15.50;99.90
15617;DHT22;7908;51.688;7.130;2023-05-10T19:53:50;15.50;99.90
15617;DHT22;7908;51.688;7.130;2023-05-10T19:56:21;15.50;99.90
15617;DHT22;7908;51.688;7.130;2023-05-10T19:58:50;15.40;99.90
15617;DHT22;7908;51.688;7.130;2023-05-10T20:01:23;15.40;99.90
15617;DHT22;7908;51.688;7.130;2023-05-10T20:03:53;15.40;99.90
15617;DHT22;7908;51.688;7.130;2023-05-10T20:06:23;15.30;99.90